Grandview Heights, Ohio
Current Conditions -  °F | °C
As of 6:53 AM on Monday 20 Oct 2014 (Local Time) from KOSU Reporting Station
Scattered Clouds Scattered Clouds  
Wind Chill: 42°   Ceiling: Unl
Heat Index: 46°   Visibility: 10mi
Dew Point: 40°   Wind: 7mph
Humidity: 79%   Direction: 190°S
Pressure: 29.98"   Gusts: NA
Location:  39.987°N, 83.0425°W
Report Text: KOSU 201053Z 19006KT 10SM SCT120 08/04 A2998 RMK AO2 SLP155 T00780044
Loading
Personal Weather Stations






























Interactive Weather Map
Tropical Storm Tracking
New forecast layout! Learn more

10-Day Weather Forecast

Advertisements
Track Severe Weather on mobile